DIRECCIÓN GENERAL DE AERONÁUTICA CIVIL
DIRECCIÓN METEOROLÓGICA DE CHILE
INFORMACIÓN METAR Y TAF

FIR SANTIAGO

Estación: SCSE
METAR SCSE 211600Z 28008KT 9999 BKN025 16/11 Q1017=

TAF SCSE 211033Z 2112/2212 27005KT 9999 BKN012 TX17/2118Z TN11/2210Z BECMG 2114/2116 29010KT BKN018 BECMG 2116/2118 SCT018 BECMG 2119/2121 CAVOK BECMG 2200/2202 12005KT BECMG 2206/2208 BKN012 TEMPO 2208/2212 VRB02KT 2000 BR BKN005=

Estación: SCER
NIL=

NIL=

Estación: SCRD
METAR SCRD 211600 300Z09KT 0300 FG VV000 12/11 Q1016=

TAF SCRD 211036Z 2112/2124 17010KT CAVOK TX26/2118Z TN09/2112Z TEMPO 2112/2116 VRB02KT 0400 FG BKN001=

Estación: SCVM
METAR SCVM 211600Z 30013KT 9999 SCT010 15/13 Q1016=

TAF SCVM 211033Z 2112/2212 00000KT 0800 FG BKN002 TX24/2118Z TN11/ 2210Z TEMPO 2112/2114 15004KT 2000 BR BKN005 BECMG 2114/2116 33008KT 9999 SCT010 BECMG 2117/2119 CAVOK BECMG 2200/2202 00000KT TEMPO 2206/ 2212 15004KT 0800 FG BKN002=

Estación: SCTB
METAR SCTB 211600Z 29004KT CAVOK 27/11 Q1015=

TAF SCTB 211015Z 2112/2124 VRB02KT CAVOK TX30/2118Z TN10/2112Z BECMG 2115/2117 21006KT TEMPO 2118/2122 6000=

Estación: SCEL
METAR SCEL 211600Z 16007KT 110V200 CAVOK 28/06 Q1014 NOSIG=

TAF SCEL 211034Z 2112/2212 VRB02KT CAVOK TX31/2119Z TN11/2210Z TEMPO 2112/2114 36004KT 6000 BECMG 2114/2116 19006KT BECMG 2118/2120 19012KT BECMG 2200/2202 15005KT TEMPO 2208/2212 VRB02KT 0500 FG BKN002=

Estación: SCSN
METAR SCSN 211600Z 32009KT 0600 FG OVC003 13/11 Q1016=

TAF SCSN 211035Z 2112/2124 24008KT 0800 -DZ FG BKN002 TX18/2118Z TN10 /2112Z TEMPO 2112/2116 18006KT 2000 BR BKN005 BECMG 2116/2118 SCT015 BECMG 2118/2120 CAVOK=

Estación: SCRG
METAR SCRG 211600Z 16013KT CAVOK 25/14 Q1014=

TAF SCRG 211037Z 2112/2124 VRB02KT CAVOK TX29/2119Z TN11/2112Z BECMG 2113/2115 17010KT=

Estación: SCIC
METAR SCIC 211600Z 16005KT 120V210 CAVOK 24/14 Q1013=

TAF SCIC 211037Z 2112/2124 19010KT 9999 SCT012 TX25/2118Z TN11/2112Z BECMG 2115/2117 CAVOK=

Estación: SCCH
METAR SCCH 211600Z 20006KT CAVOK 23/16 Q1015=

TAF SCCH 211037Z 2112/2124 20005KT 0500 FG BKN002 TX23/2118Z TN10/ 2112Z TEMPO 2112/2114 3000 BR BKN006 BECMG 2115/2117 9999 SCT010 BECMG 2118/2120 20010KT CAVOK=

Estación: SCIE
METAR SCIE 211600Z 24011KT CAVOK 17/13 Q1016=

TAF SCIE 211034Z 2112/2212 22005KT 9999 BKN005 TX20/2118Z TN11/2210Z TEMPO 2112/2113 16005KT 5000 BR SCT005 BECMG 2115/2117 23010KT CAVOK BECMG 2200/2202 22005KT TEMPO 2206/2212 16005KT 2000 BR BKN002=

Estación: SCGE
METAR SCGE 211600Z 23003KT CAVOK 22/13 Q1014=

TAF SCGE 211038Z 2112/2124 VRB02KT CAVOK TX20/2118Z TN12/2112Z BECMG 2117/2119 30008KT=


Volver